sensor_id;sensor_type;location;lat;lon;timestamp;P1;durP1;ratioP1;P2;durP2;ratioP2
18170;SDS011;9210;48.358;10.902;2023-02-22T00:02:05;18.50;;;6.50;;
18170;SDS011;9210;48.358;10.902;2023-02-22T00:04:38;16.40;;;6.57;;
18170;SDS011;9210;48.358;10.902;2023-02-22T00:07:07;15.13;;;6.70;;
18170;SDS011;9210;48.358;10.902;2023-02-22T00:09:35;16.33;;;6.87;;
18170;SDS011;9210;48.358;10.902;2023-02-22T00:12:03;15.43;;;6.53;;
18170;SDS011;9210;48.358;10.902;2023-02-22T00:14:35;14.40;;;6.30;;
18170;SDS011;9210;48.358;10.902;2023-02-22T00:17:03;12.67;;;6.17;;
18170;SDS011;9210;48.358;10.902;2023-02-22T00:19:32;15.03;;;6.33;;
18170;SDS011;9210;48.358;10.902;2023-02-22T00:22:00;16.23;;;6.10;;
18170;SDS011;9210;48.358;10.902;2023-02-22T00:24:30;15.00;;;6.30;;
18170;SDS011;9210;48.358;10.902;2023-02-22T00:27:01;13.17;;;6.77;;
18170;SDS011;9210;48.358;10.902;2023-02-22T00:29:29;14.77;;;6.43;;
18170;SDS011;9210;48.358;10.902;2023-02-22T00:32:01;19.23;;;7.83;;
18170;SDS011;9210;48.358;10.902;2023-02-22T00:34:29;17.83;;;7.60;;
18170;SDS011;9210;48.358;10.902;2023-02-22T00:36:57;14.77;;;7.00;;
18170;SDS011;9210;48.358;10.902;2023-02-22T00:39:28;15.63;;;7.10;;
18170;SDS011;9210;48.358;10.902;2023-02-22T00:41:57;16.10;;;6.90;;
18170;SDS011;9210;48.358;10.902;2023-02-22T00:44:27;16.73;;;7.13;;
18170;SDS011;9210;48.358;10.902;2023-02-22T00:46:56;14.83;;;6.97;;
18170;SDS011;9210;48.358;10.902;2023-02-22T00:49:26;13.23;;;6.83;;
18170;SDS011;9210;48.358;10.902;2023-02-22T00:51:54;14.53;;;6.97;;
18170;SDS011;9210;48.358;10.902;2023-02-22T00:54:23;16.90;;;8.33;;
18170;SDS011;9210;48.358;10.902;2023-02-22T00:56:51;19.07;;;7.37;;
18170;SDS011;9210;48.358;10.902;2023-02-22T00:59:19;15.67;;;8.20;;
18170;SDS011;9210;48.358;10.902;2023-02-22T01:01:48;17.77;;;8.07;;
18170;SDS011;9210;48.358;10.902;2023-02-22T01:04:17;22.13;;;8.50;;
18170;SDS011;9210;48.358;10.902;2023-02-22T01:06:47;18.57;;;8.43;;
18170;SDS011;9210;48.358;10.902;2023-02-22T01:09:15;15.73;;;7.63;;
18170;SDS011;9210;48.358;10.902;2023-02-22T01:11:45;19.87;;;8.80;;
18170;SDS011;9210;48.358;10.902;2023-02-22T01:14:15;17.33;;;8.17;;
18170;SDS011;9210;48.358;10.902;2023-02-22T01:16:46;23.03;;;8.47;;
18170;SDS011;9210;48.358;10.902;2023-02-22T01:19:16;21.27;;;8.73;;
18170;SDS011;9210;48.358;10.902;2023-02-22T01:21:46;19.70;;;9.10;;
18170;SDS011;9210;48.358;10.902;2023-02-22T01:24:15;22.23;;;9.60;;
18170;SDS011;9210;48.358;10.902;2023-02-22T01:26:48;23.53;;;9.50;;
18170;SDS011;9210;48.358;10.902;2023-02-22T01:29:17;18.43;;;8.87;;
18170;SDS011;9210;48.358;10.902;2023-02-22T01:31:51;21.20;;;9.07;;
18170;SDS011;9210;48.358;10.902;2023-02-22T01:34:20;19.30;;;9.13;;
18170;SDS011;9210;48.358;10.902;2023-02-22T01:36:50;23.77;;;9.10;;
18170;SDS011;9210;48.358;10.902;2023-02-22T01:39:19;21.43;;;10.17;;
18170;SDS011;9210;48.358;10.902;2023-02-22T01:41:47;25.47;;;9.73;;
18170;SDS011;9210;48.358;10.902;2023-02-22T01:44:20;20.57;;;9.50;;
18170;SDS011;9210;48.358;10.902;2023-02-22T01:46:50;20.43;;;9.80;;
18170;SDS011;9210;48.358;10.902;2023-02-22T01:49:18;20.10;;;8.20;;
18170;SDS011;9210;48.358;10.902;2023-02-22T01:51:47;21.20;;;9.27;;
18170;SDS011;9210;48.358;10.902;2023-02-22T01:54:22;22.70;;;9.00;;
18170;SDS011;9210;48.358;10.902;2023-02-22T01:56:53;20.47;;;9.27;;
18170;SDS011;9210;48.358;10.902;2023-02-22T01:59:22;17.60;;;8.90;;
18170;SDS011;9210;48.358;10.902;2023-02-22T02:01:51;19.87;;;9.03;;
18170;SDS011;9210;48.358;10.902;2023-02-22T02:04:20;17.10;;;8.93;;
18170;SDS011;9210;48.358;10.902;2023-02-22T02:06:53;17.07;;;8.43;;
18170;SDS011;9210;48.358;10.902;2023-02-22T02:09:25;17.33;;;8.67;;
18170;SDS011;9210;48.358;10.902;2023-02-22T02:11:57;18.13;;;9.00;;
18170;SDS011;9210;48.358;10.902;2023-02-22T02:14:28;19.47;;;8.87;;
18170;SDS011;9210;48.358;10.902;2023-02-22T02:16:58;17.67;;;8.83;;
18170;SDS011;9210;48.358;10.902;2023-02-22T02:19:31;25.83;;;9.43;;
18170;SDS011;9210;48.358;10.902;2023-02-22T02:22:07;19.43;;;9.20;;
18170;SDS011;9210;48.358;10.902;2023-02-22T02:27:25;17.43;;;9.20;;
18170;SDS011;9210;48.358;10.902;2023-02-22T02:30:05;22.23;;;9.40;;
18170;SDS011;9210;48.358;10.902;2023-02-22T02:32:49;19.77;;;8.97;;
18170;SDS011;9210;48.358;10.902;2023-02-22T02:35:20;24.67;;;9.43;;
18170;SDS011;9210;48.358;10.902;2023-02-22T02:37:54;22.50;;;9.10;;
18170;SDS011;9210;48.358;10.902;2023-02-22T02:40:26;21.33;;;10.10;;
18170;SDS011;9210;48.358;10.902;2023-02-22T02:42:59;18.57;;;9.00;;
18170;SDS011;9210;48.358;10.902;2023-02-22T02:45:29;21.93;;;9.00;;
18170;SDS011;9210;48.358;10.902;2023-02-22T02:48:01;19.23;;;9.57;;
18170;SDS011;9210;48.358;10.902;2023-02-22T02:50:32;22.67;;;9.73;;
18170;SDS011;9210;48.358;10.902;2023-02-22T02:53:04;25.03;;;10.10;;
18170;SDS011;9210;48.358;10.902;2023-02-22T02:55:35;21.20;;;9.30;;
18170;SDS011;9210;48.358;10.902;2023-02-22T02:58:05;21.00;;;9.70;;
18170;SDS011;9210;48.358;10.902;2023-02-22T03:00:36;21.83;;;9.50;;
18170;SDS011;9210;48.358;10.902;2023-02-22T03:03:08;19.63;;;9.50;;
18170;SDS011;9210;48.358;10.902;2023-02-22T03:05:45;24.30;;;10.00;;
18170;SDS011;9210;48.358;10.902;2023-02-22T03:08:20;21.40;;;10.37;;
18170;SDS011;9210;48.358;10.902;2023-02-22T03:10:54;21.03;;;9.33;;
18170;SDS011;9210;48.358;10.902;2023-02-22T03:13:26;18.27;;;9.47;;
18170;SDS011;9210;48.358;10.902;2023-02-22T03:16:00;18.57;;;9.37;;
18170;SDS011;9210;48.358;10.902;2023-02-22T03:18:33;19.30;;;9.23;;
18170;SDS011;9210;48.358;10.902;2023-02-22T03:21:06;22.03;;;10.83;;
18170;SDS011;9210;48.358;10.902;2023-02-22T03:23:41;18.63;;;10.43;;
18170;SDS011;9210;48.358;10.902;2023-02-22T03:26:12;19.13;;;10.33;;
18170;SDS011;9210;48.358;10.902;2023-02-22T03:28:45;21.53;;;10.40;;
18170;SDS011;9210;48.358;10.902;2023-02-22T03:31:16;19.40;;;10.10;;
18170;SDS011;9210;48.358;10.902;2023-02-22T03:33:48;22.23;;;11.03;;
18170;SDS011;9210;48.358;10.902;2023-02-22T03:36:18;19.60;;;10.00;;
18170;SDS011;9210;48.358;10.902;2023-02-22T03:38:52;21.37;;;10.50;;
18170;SDS011;9210;48.358;10.902;2023-02-22T03:41:22;19.40;;;9.97;;
18170;SDS011;9210;48.358;10.902;2023-02-22T03:43:52;19.43;;;10.20;;
18170;SDS011;9210;48.358;10.902;2023-02-22T03:46:23;19.03;;;9.90;;
18170;SDS011;9210;48.358;10.902;2023-02-22T03:48:57;22.27;;;10.70;;
18170;SDS011;9210;48.358;10.902;2023-02-22T03:51:31;27.23;;;9.90;;
18170;SDS011;9210;48.358;10.902;2023-02-22T03:54:01;21.87;;;10.67;;
18170;SDS011;9210;48.358;10.902;2023-02-22T03:56:38;20.83;;;9.67;;
18170;SDS011;9210;48.358;10.902;2023-02-22T03:59:12;24.00;;;10.70;;
18170;SDS011;9210;48.358;10.902;2023-02-22T04:01:42;21.03;;;11.10;;
18170;SDS011;9210;48.358;10.902;2023-02-22T04:04:12;22.23;;;10.27;;
18170;SDS011;9210;48.358;10.902;2023-02-22T04:06:41;21.20;;;10.30;;
18170;SDS011;9210;48.358;10.902;2023-02-22T04:09:10;19.10;;;9.80;;
18170;SDS011;9210;48.358;10.902;2023-02-22T04:11:39;22.87;;;9.77;;
18170;SDS011;9210;48.358;10.902;2023-02-22T04:14:07;16.33;;;9.03;;
18170;SDS011;9210;48.358;10.902;2023-02-22T04:16:35;22.17;;;8.80;;
18170;SDS011;9210;48.358;10.902;2023-02-22T04:19:07;20.57;;;9.43;;
18170;SDS011;9210;48.358;10.902;2023-02-22T04:21:38;25.00;;;9.23;;
18170;SDS011;9210;48.358;10.902;2023-02-22T04:24:13;21.97;;;9.13;;
18170;SDS011;9210;48.358;10.902;2023-02-22T04:26:42;21.83;;;9.63;;
18170;SDS011;9210;48.358;10.902;2023-02-22T04:29:10;20.67;;;9.00;;
18170;SDS011;9210;48.358;10.902;2023-02-22T04:31:42;17.73;;;9.43;;
18170;SDS011;9210;48.358;10.902;2023-02-22T04:34:11;19.87;;;10.00;;
18170;SDS011;9210;48.358;10.902;2023-02-22T04:36:41;17.70;;;9.70;;
18170;SDS011;9210;48.358;10.902;2023-02-22T04:39:11;20.17;;;10.80;;
18170;SDS011;9210;48.358;10.902;2023-02-22T04:41:39;20.20;;;10.40;;
18170;SDS011;9210;48.358;10.902;2023-02-22T04:44:08;19.40;;;10.03;;
18170;SDS011;9210;48.358;10.902;2023-02-22T04:46:36;20.93;;;10.43;;
18170;SDS011;9210;48.358;10.902;2023-02-22T04:49:05;23.70;;;10.83;;
18170;SDS011;9210;48.358;10.902;2023-02-22T04:51:36;18.70;;;8.93;;
18170;SDS011;9210;48.358;10.902;2023-02-22T04:54:08;16.20;;;8.53;;
18170;SDS011;9210;48.358;10.902;2023-02-22T04:56:40;16.60;;;8.40;;
18170;SDS011;9210;48.358;10.902;2023-02-22T04:59:08;21.67;;;9.13;;
18170;SDS011;9210;48.358;10.902;2023-02-22T05:01:40;15.87;;;7.47;;
18170;SDS011;9210;48.358;10.902;2023-02-22T05:04:09;14.80;;;7.80;;
18170;SDS011;9210;48.358;10.902;2023-02-22T05:06:37;18.17;;;7.70;;
18170;SDS011;9210;48.358;10.902;2023-02-22T05:09:07;16.40;;;8.53;;
18170;SDS011;9210;48.358;10.902;2023-02-22T05:11:36;18.97;;;8.87;;
18170;SDS011;9210;48.358;10.902;2023-02-22T05:14:04;18.07;;;8.73;;
18170;SDS011;9210;48.358;10.902;2023-02-22T05:16:33;16.90;;;7.93;;
18170;SDS011;9210;48.358;10.902;2023-02-22T05:19:02;15.57;;;7.57;;
18170;SDS011;9210;48.358;10.902;2023-02-22T05:21:30;19.53;;;8.40;;
18170;SDS011;9210;48.358;10.902;2023-02-22T05:23:59;13.33;;;7.27;;
18170;SDS011;9210;48.358;10.902;2023-02-22T05:26:29;18.23;;;8.93;;
18170;SDS011;9210;48.358;10.902;2023-02-22T05:28:58;21.33;;;9.17;;
18170;SDS011;9210;48.358;10.902;2023-02-22T05:31:26;17.87;;;8.03;;
18170;SDS011;9210;48.358;10.902;2023-02-22T05:33:55;16.97;;;8.23;;
18170;SDS011;9210;48.358;10.902;2023-02-22T05:36:23;15.50;;;7.57;;
18170;SDS011;9210;48.358;10.902;2023-02-22T05:38:53;14.57;;;7.63;;
18170;SDS011;9210;48.358;10.902;2023-02-22T05:41:21;14.67;;;8.03;;
18170;SDS011;9210;48.358;10.902;2023-02-22T05:43:51;16.10;;;7.87;;
18170;SDS011;9210;48.358;10.902;2023-02-22T05:46:20;18.33;;;8.80;;
18170;SDS011;9210;48.358;10.902;2023-02-22T05:48:48;19.13;;;8.30;;
18170;SDS011;9210;48.358;10.902;2023-02-22T05:51:17;18.90;;;8.33;;
18170;SDS011;9210;48.358;10.902;2023-02-22T05:53:46;17.67;;;7.43;;
18170;SDS011;9210;48.358;10.902;2023-02-22T05:56:21;16.13;;;7.77;;
18170;SDS011;9210;48.358;10.902;2023-02-22T05:58:52;14.47;;;7.50;;
18170;SDS011;9210;48.358;10.902;2023-02-22T06:01:20;18.40;;;7.90;;
18170;SDS011;9210;48.358;10.902;2023-02-22T06:03:49;17.23;;;7.63;;
18170;SDS011;9210;48.358;10.902;2023-02-22T06:06:18;14.97;;;7.10;;
18170;SDS011;9210;48.358;10.902;2023-02-22T06:08:48;15.43;;;7.37;;
18170;SDS011;9210;48.358;10.902;2023-02-22T06:11:16;16.40;;;7.50;;
18170;SDS011;9210;48.358;10.902;2023-02-22T06:13:48;14.53;;;7.33;;
18170;SDS011;9210;48.358;10.902;2023-02-22T06:16:18;16.93;;;7.43;;
18170;SDS011;9210;48.358;10.902;2023-02-22T06:18:47;17.93;;;8.13;;
18170;SDS011;9210;48.358;10.902;2023-02-22T06:21:16;15.93;;;7.60;;
18170;SDS011;9210;48.358;10.902;2023-02-22T06:23:45;14.50;;;7.23;;
18170;SDS011;9210;48.358;10.902;2023-02-22T06:26:14;16.80;;;7.00;;
18170;SDS011;9210;48.358;10.902;2023-02-22T06:28:43;20.93;;;8.20;;
18170;SDS011;9210;48.358;10.902;2023-02-22T06:31:12;18.27;;;8.03;;
18170;SDS011;9210;48.358;10.902;2023-02-22T06:33:42;19.53;;;8.40;;
18170;SDS011;9210;48.358;10.902;2023-02-22T06:36:11;16.37;;;8.10;;
18170;SDS011;9210;48.358;10.902;2023-02-22T06:38:39;16.53;;;7.47;;
18170;SDS011;9210;48.358;10.902;2023-02-22T06:41:08;13.77;;;6.90;;
18170;SDS011;9210;48.358;10.902;2023-02-22T06:43:36;15.20;;;7.97;;
18170;SDS011;9210;48.358;10.902;2023-02-22T06:46:08;17.73;;;7.37;;
18170;SDS011;9210;48.358;10.902;2023-02-22T06:48:37;18.10;;;8.00;;
18170;SDS011;9210;48.358;10.902;2023-02-22T06:51:08;17.70;;;7.43;;
18170;SDS011;9210;48.358;10.902;2023-02-22T06:53:36;16.50;;;7.27;;
18170;SDS011;9210;48.358;10.902;2023-02-22T06:56:05;15.43;;;7.07;;
18170;SDS011;9210;48.358;10.902;2023-02-22T06:58:33;17.27;;;7.27;;
18170;SDS011;9210;48.358;10.902;2023-02-22T07:01:02;18.97;;;7.60;;
18170;SDS011;9210;48.358;10.902;2023-02-22T07:03:33;17.53;;;7.47;;
18170;SDS011;9210;48.358;10.902;2023-02-22T07:06:02;15.37;;;6.93;;
18170;SDS011;9210;48.358;10.902;2023-02-22T07:08:32;15.90;;;6.70;;
18170;SDS011;9210;48.358;10.902;2023-02-22T07:11:00;19.60;;;6.90;;
18170;SDS011;9210;48.358;10.902;2023-02-22T07:13:29;19.67;;;7.23;;
18170;SDS011;9210;48.358;10.902;2023-02-22T07:15:57;14.97;;;6.77;;
18170;SDS011;9210;48.358;10.902;2023-02-22T07:18:28;10.67;;;5.90;;
18170;SDS011;9210;48.358;10.902;2023-02-22T07:20:56;14.87;;;6.40;;
18170;SDS011;9210;48.358;10.902;2023-02-22T07:23:25;13.83;;;6.60;;
18170;SDS011;9210;48.358;10.902;2023-02-22T07:25:54;17.07;;;6.80;;
18170;SDS011;9210;48.358;10.902;2023-02-22T07:28:23;12.47;;;6.37;;
18170;SDS011;9210;48.358;10.902;2023-02-22T07:30:51;15.13;;;6.17;;
18170;SDS011;9210;48.358;10.902;2023-02-22T07:33:20;16.13;;;5.97;;
18170;SDS011;9210;48.358;10.902;2023-02-22T07:35:49;13.37;;;5.60;;
18170;SDS011;9210;48.358;10.902;2023-02-22T07:38:18;11.53;;;5.83;;
18170;SDS011;9210;48.358;10.902;2023-02-22T07:40:47;14.97;;;6.13;;
18170;SDS011;9210;48.358;10.902;2023-02-22T07:43:17;12.93;;;5.73;;
18170;SDS011;9210;48.358;10.902;2023-02-22T07:45:46;14.00;;;6.00;;
18170;SDS011;9210;48.358;10.902;2023-02-22T07:48:15;17.93;;;6.33;;
18170;SDS011;9210;48.358;10.902;2023-02-22T07:50:44;14.90;;;6.07;;
18170;SDS011;9210;48.358;10.902;2023-02-22T07:53:13;14.33;;;5.77;;
18170;SDS011;9210;48.358;10.902;2023-02-22T07:55:43;10.67;;;5.53;;
18170;SDS011;9210;48.358;10.902;2023-02-22T07:58:12;13.13;;;5.53;;
18170;SDS011;9210;48.358;10.902;2023-02-22T08:00:42;15.30;;;5.47;;
18170;SDS011;9210;48.358;10.902;2023-02-22T08:03:14;11.33;;;4.57;;
18170;SDS011;9210;48.358;10.902;2023-02-22T08:05:46;10.68;;;5.30;;
18170;SDS011;9210;48.358;10.902;2023-02-22T08:08:14;10.38;;;5.18;;
18170;SDS011;9210;48.358;10.902;2023-02-22T08:10:45;12.77;;;5.00;;
18170;SDS011;9210;48.358;10.902;2023-02-22T08:13:14;10.02;;;5.07;;
18170;SDS011;9210;48.358;10.902;2023-02-22T08:15:44;13.48;;;5.28;;
18170;SDS011;9210;48.358;10.902;2023-02-22T08:18:14;8.88;;;4.85;;
18170;SDS011;9210;48.358;10.902;2023-02-22T08:20:44;10.88;;;5.22;;
18170;SDS011;9210;48.358;10.902;2023-02-22T08:23:13;7.45;;;4.78;;
18170;SDS011;9210;48.358;10.902;2023-02-22T08:25:43;12.82;;;5.70;;
18170;SDS011;9210;48.358;10.902;2023-02-22T08:28:13;11.97;;;5.57;;
18170;SDS011;9210;48.358;10.902;2023-02-22T08:30:42;12.03;;;5.80;;
18170;SDS011;9210;48.358;10.902;2023-02-22T08:33:13;10.93;;;5.50;;
18170;SDS011;9210;48.358;10.902;2023-02-22T08:35:45;11.83;;;6.00;;
18170;SDS011;9210;48.358;10.902;2023-02-22T08:38:18;15.07;;;5.33;;
18170;SDS011;9210;48.358;10.902;2023-02-22T08:40:47;10.00;;;5.10;;
18170;SDS011;9210;48.358;10.902;2023-02-22T08:43:16;10.90;;;5.00;;
18170;SDS011;9210;48.358;10.902;2023-02-22T08:45:44;11.03;;;5.17;;
18170;SDS011;9210;48.358;10.902;2023-02-22T08:48:15;12.87;;;6.00;;
18170;SDS011;9210;48.358;10.902;2023-02-22T08:50:43;11.97;;;5.60;;
18170;SDS011;9210;48.358;10.902;2023-02-22T08:53:12;13.03;;;5.00;;
18170;SDS011;9210;48.358;10.902;2023-02-22T08:55:41;9.73;;;4.87;;
18170;SDS011;9210;48.358;10.902;2023-02-22T08:58:10;9.33;;;5.03;;
18170;SDS011;9210;48.358;10.902;2023-02-22T09:00:39;11.80;;;4.97;;
18170;SDS011;9210;48.358;10.902;2023-02-22T09:03:11;12.00;;;5.60;;
18170;SDS011;9210;48.358;10.902;2023-02-22T09:05:41;11.07;;;5.47;;
18170;SDS011;9210;48.358;10.902;2023-02-22T09:08:10;10.07;;;5.43;;
18170;SDS011;9210;48.358;10.902;2023-02-22T09:10:38;9.53;;;4.97;;
18170;SDS011;9210;48.358;10.902;2023-02-22T09:13:07;8.53;;;4.90;;
18170;SDS011;9210;48.358;10.902;2023-02-22T09:15:36;11.30;;;4.60;;
18170;SDS011;9210;48.358;10.902;2023-02-22T09:18:05;8.60;;;4.40;;
18170;SDS011;9210;48.358;10.902;2023-02-22T09:20:34;9.95;;;4.75;;
18170;SDS011;9210;48.358;10.902;2023-02-22T09:23:05;9.98;;;4.63;;
18170;SDS011;9210;48.358;10.902;2023-02-22T09:25:35;9.38;;;4.70;;
18170;SDS011;9210;48.358;10.902;2023-02-22T09:28:04;9.52;;;4.88;;
18170;SDS011;9210;48.358;10.902;2023-02-22T09:30:33;10.52;;;4.93;;
18170;SDS011;9210;48.358;10.902;2023-02-22T09:33:03;12.07;;;4.80;;
18170;SDS011;9210;48.358;10.902;2023-02-22T09:35:32;10.80;;;4.65;;
18170;SDS011;9210;48.358;10.902;2023-02-22T09:38:02;11.73;;;4.97;;
18170;SDS011;9210;48.358;10.902;2023-02-22T09:40:33;11.07;;;4.60;;
18170;SDS011;9210;48.358;10.902;2023-02-22T09:46:14;7.78;;;4.05;;
18170;SDS011;9210;48.358;10.902;2023-02-22T09:49:02;8.88;;;4.55;;
18170;SDS011;9210;48.358;10.902;2023-02-22T09:51:33;9.18;;;4.25;;
18170;SDS011;9210;48.358;10.902;2023-02-22T09:54:05;9.27;;;3.80;;
18170;SDS011;9210;48.358;10.902;2023-02-22T09:56:41;7.05;;;3.53;;
18170;SDS011;9210;48.358;10.902;2023-02-22T09:59:14;8.55;;;3.70;;
18170;SDS011;9210;48.358;10.902;2023-02-22T10:01:46;10.15;;;3.70;;
18170;SDS011;9210;48.358;10.902;2023-02-22T10:04:18;6.82;;;3.30;;
18170;SDS011;9210;48.358;10.902;2023-02-22T10:06:52;8.85;;;3.20;;
18170;SDS011;9210;48.358;10.902;2023-02-22T10:09:25;5.20;;;2.40;;
18170;SDS011;9210;48.358;10.902;2023-02-22T10:11:57;5.85;;;2.60;;
18170;SDS011;9210;48.358;10.902;2023-02-22T10:17:18;8.80;;;2.47;;
18170;SDS011;9210;48.358;10.902;2023-02-22T10:19:52;7.88;;;2.40;;
18170;SDS011;9210;48.358;10.902;2023-02-22T10:22:30;8.00;;;2.28;;
18170;SDS011;9210;48.358;10.902;2023-02-22T10:25:04;10.25;;;2.70;;
18170;SDS011;9210;48.358;10.902;2023-02-22T10:27:40;7.00;;;2.50;;
18170;SDS011;9210;48.358;10.902;2023-02-22T10:30:13;6.70;;;2.40;;
18170;SDS011;9210;48.358;10.902;2023-02-22T10:32:52;8.13;;;2.50;;
18170;SDS011;9210;48.358;10.902;2023-02-22T10:35:22;6.23;;;2.30;;
18170;SDS011;9210;48.358;10.902;2023-02-22T10:37:52;5.00;;;2.40;;
18170;SDS011;9210;48.358;10.902;2023-02-22T10:40:22;8.18;;;2.40;;
18170;SDS011;9210;48.358;10.902;2023-02-22T10:43:01;4.47;;;2.00;;
18170;SDS011;9210;48.358;10.902;2023-02-22T10:45:30;4.90;;;2.00;;
18170;SDS011;9210;48.358;10.902;2023-02-22T10:48:00;7.47;;;2.30;;
18170;SDS011;9210;48.358;10.902;2023-02-22T10:50:34;6.80;;;2.30;;
18170;SDS011;9210;48.358;10.902;2023-02-22T10:53:05;5.93;;;2.00;;
18170;SDS011;9210;48.358;10.902;2023-02-22T10:55:34;4.38;;;2.00;;
18170;SDS011;9210;48.358;10.902;2023-02-22T10:58:05;6.68;;;1.80;;
18170;SDS011;9210;48.358;10.902;2023-02-22T11:00:34;6.88;;;1.92;;
18170;SDS011;9210;48.358;10.902;2023-02-22T11:03:05;4.50;;;1.60;;
18170;SDS011;9210;48.358;10.902;2023-02-22T11:05:35;7.50;;;1.95;;
18170;SDS011;9210;48.358;10.902;2023-02-22T11:08:13;6.15;;;1.73;;
18170;SDS011;9210;48.358;10.902;2023-02-22T11:10:42;5.63;;;1.90;;
18170;SDS011;9210;48.358;10.902;2023-02-22T11:13:22;8.10;;;2.20;;
18170;SDS011;9210;48.358;10.902;2023-02-22T11:15:52;4.72;;;2.08;;
18170;SDS011;9210;48.358;10.902;2023-02-22T11:18:21;8.52;;;2.17;;
18170;SDS011;9210;48.358;10.902;2023-02-22T11:20:58;6.88;;;2.20;;
18170;SDS011;9210;48.358;10.902;2023-02-22T11:23:27;4.30;;;1.95;;
18170;SDS011;9210;48.358;10.902;2023-02-22T11:26:00;5.97;;;1.98;;
18170;SDS011;9210;48.358;10.902;2023-02-22T11:28:30;6.53;;;2.70;;
18170;SDS011;9210;48.358;10.902;2023-02-22T11:31:07;4.28;;;1.80;;
18170;SDS011;9210;48.358;10.902;2023-02-22T11:33:37;3.92;;;2.10;;
18170;SDS011;9210;48.358;10.902;2023-02-22T11:36:06;4.00;;;2.20;;
18170;SDS011;9210;48.358;10.902;2023-02-22T11:38:35;4.32;;;2.20;;
18170;SDS011;9210;48.358;10.902;2023-02-22T11:41:12;4.22;;;2.17;;
18170;SDS011;9210;48.358;10.902;2023-02-22T11:43:46;4.07;;;2.10;;
18170;SDS011;9210;48.358;10.902;2023-02-22T11:46:16;9.32;;;2.53;;
18170;SDS011;9210;48.358;10.902;2023-02-22T11:48:52;5.10;;;2.25;;
18170;SDS011;9210;48.358;10.902;2023-02-22T11:51:25;4.10;;;2.03;;
18170;SDS011;9210;48.358;10.902;2023-02-22T11:54:06;3.92;;;2.10;;
18170;SDS011;9210;48.358;10.902;2023-02-22T11:56:37;5.80;;;2.40;;
18170;SDS011;9210;48.358;10.902;2023-02-22T11:59:11;7.03;;;2.53;;
18170;SDS011;9210;48.358;10.902;2023-02-22T12:01:44;6.82;;;2.20;;
18170;SDS011;9210;48.358;10.902;2023-02-22T12:07:08;6.20;;;2.00;;
18170;SDS011;9210;48.358;10.902;2023-02-22T12:09:42;5.03;;;2.40;;
18170;SDS011;9210;48.358;10.902;2023-02-22T12:12:16;7.32;;;2.20;;
18170;SDS011;9210;48.358;10.902;2023-02-22T12:14:49;3.97;;;2.00;;
18170;SDS011;9210;48.358;10.902;2023-02-22T12:17:22;5.70;;;2.30;;
18170;SDS011;9210;48.358;10.902;2023-02-22T12:19:53;4.70;;;2.15;;
18170;SDS011;9210;48.358;10.902;2023-02-22T12:22:25;4.75;;;2.25;;
18170;SDS011;9210;48.358;10.902;2023-02-22T12:24:55;5.38;;;2.30;;
18170;SDS011;9210;48.358;10.902;2023-02-22T12:27:37;7.32;;;2.38;;
18170;SDS011;9210;48.358;10.902;2023-02-22T12:30:12;7.70;;;2.50;;
18170;SDS011;9210;48.358;10.902;2023-02-22T12:32:42;6.80;;;2.70;;
18170;SDS011;9210;48.358;10.902;2023-02-22T12:35:14;3.85;;;2.38;;
18170;SDS011;9210;48.358;10.902;2023-02-22T12:37:48;6.10;;;2.60;;
18170;SDS011;9210;48.358;10.902;2023-02-22T12:40:19;5.13;;;2.38;;
18170;SDS011;9210;48.358;10.902;2023-02-22T12:42:52;7.63;;;2.40;;
18170;SDS011;9210;48.358;10.902;2023-02-22T12:45:27;4.87;;;2.27;;
18170;SDS011;9210;48.358;10.902;2023-02-22T12:47:59;5.80;;;2.27;;
18170;SDS011;9210;48.358;10.902;2023-02-22T12:50:29;6.20;;;2.47;;
18170;SDS011;9210;48.358;10.902;2023-02-22T12:53:00;5.30;;;2.20;;
18170;SDS011;9210;48.358;10.902;2023-02-22T12:55:32;6.13;;;2.53;;
18170;SDS011;9210;48.358;10.902;2023-02-22T12:58:05;6.57;;;2.23;;
18170;SDS011;9210;48.358;10.902;2023-02-22T13:00:38;5.30;;;2.37;;
18170;SDS011;9210;48.358;10.902;2023-02-22T13:03:17;6.10;;;2.67;;
18170;SDS011;9210;48.358;10.902;2023-02-22T13:05:48;6.97;;;2.40;;
18170;SDS011;9210;48.358;10.902;2023-02-22T13:08:21;3.80;;;1.90;;
18170;SDS011;9210;48.358;10.902;2023-02-22T13:10:59;7.25;;;2.40;;
18170;SDS011;9210;48.358;10.902;2023-02-22T13:13:32;9.10;;;2.30;;
18170;SDS011;9210;48.358;10.902;2023-02-22T13:16:05;5.68;;;2.20;;
18170;SDS011;9210;48.358;10.902;2023-02-22T13:18:35;5.63;;;2.30;;
18170;SDS011;9210;48.358;10.902;2023-02-22T13:21:10;6.88;;;2.42;;
18170;SDS011;9210;48.358;10.902;2023-02-22T13:23:45;9.27;;;2.50;;
18170;SDS011;9210;48.358;10.902;2023-02-22T13:26:17;5.25;;;2.35;;
18170;SDS011;9210;48.358;10.902;2023-02-22T13:28:48;5.88;;;2.38;;
18170;SDS011;9210;48.358;10.902;2023-02-22T13:31:27;7.13;;;2.20;;
18170;SDS011;9210;48.358;10.902;2023-02-22T13:34:08;5.87;;;2.30;;
18170;SDS011;9210;48.358;10.902;2023-02-22T13:36:47;6.10;;;2.40;;
18170;SDS011;9210;48.358;10.902;2023-02-22T13:39:33;4.90;;;2.27;;
18170;SDS011;9210;48.358;10.902;2023-02-22T13:42:07;3.60;;;1.70;;
18170;SDS011;9210;48.358;10.902;2023-02-22T13:47:33;4.20;;;1.77;;
18170;SDS011;9210;48.358;10.902;2023-02-22T13:50:14;3.55;;;1.75;;
18170;SDS011;9210;48.358;10.902;2023-02-22T13:52:49;6.85;;;1.90;;
18170;SDS011;9210;48.358;10.902;2023-02-22T13:55:18;5.45;;;2.28;;
18170;SDS011;9210;48.358;10.902;2023-02-22T13:57:48;8.38;;;2.30;;
18170;SDS011;9210;48.358;10.902;2023-02-22T14:00:19;5.10;;;2.10;;
18170;SDS011;9210;48.358;10.902;2023-02-22T14:03:00;3.63;;;1.92;;
18170;SDS011;9210;48.358;10.902;2023-02-22T14:05:48;4.22;;;2.05;;
18170;SDS011;9210;48.358;10.902;2023-02-22T14:11:06;6.00;;;2.80;;
18170;SDS011;9210;48.358;10.902;2023-02-22T14:14:10;5.03;;;2.65;;
18170;SDS011;9210;48.358;10.902;2023-02-22T14:16:39;5.47;;;2.60;;
18170;SDS011;9210;48.358;10.902;2023-02-22T14:19:17;6.63;;;3.53;;
18170;SDS011;9210;48.358;10.902;2023-02-22T14:21:55;5.28;;;3.20;;
18170;SDS011;9210;48.358;10.902;2023-02-22T14:24:27;7.05;;;3.42;;
18170;SDS011;9210;48.358;10.902;2023-02-22T14:26:58;6.25;;;3.40;;
18170;SDS011;9210;48.358;10.902;2023-02-22T14:29:26;10.40;;;4.07;;
18170;SDS011;9210;48.358;10.902;2023-02-22T14:31:59;9.95;;;4.22;;
18170;SDS011;9210;48.358;10.902;2023-02-22T14:34:48;11.98;;;4.30;;
18170;SDS011;9210;48.358;10.902;2023-02-22T14:37:18;10.37;;;4.00;;
18170;SDS011;9210;48.358;10.902;2023-02-22T14:39:50;10.80;;;4.10;;
18170;SDS011;9210;48.358;10.902;2023-02-22T14:42:20;10.10;;;4.27;;
18170;SDS011;9210;48.358;10.902;2023-02-22T14:44:53;14.15;;;4.65;;
18170;SDS011;9210;48.358;10.902;2023-02-22T14:47:23;9.33;;;4.07;;
18170;SDS011;9210;48.358;10.902;2023-02-22T14:49:58;8.40;;;4.17;;
18170;SDS011;9210;48.358;10.902;2023-02-22T14:52:31;8.30;;;4.00;;
18170;SDS011;9210;48.358;10.902;2023-02-22T14:55:06;9.80;;;4.60;;
18170;SDS011;9210;48.358;10.902;2023-02-22T14:57:42;9.80;;;4.27;;
18170;SDS011;9210;48.358;10.902;2023-02-22T15:00:15;14.13;;;6.10;;
18170;SDS011;9210;48.358;10.902;2023-02-22T15:02:46;13.17;;;5.30;;
18170;SDS011;9210;48.358;10.902;2023-02-22T15:05:17;10.50;;;5.33;;
18170;SDS011;9210;48.358;10.902;2023-02-22T15:07:49;13.30;;;5.63;;
18170;SDS011;9210;48.358;10.902;2023-02-22T15:10:21;13.30;;;5.80;;
18170;SDS011;9210;48.358;10.902;2023-02-22T15:12:50;18.00;;;6.73;;
18170;SDS011;9210;48.358;10.902;2023-02-22T15:15:21;16.38;;;7.13;;
18170;SDS011;9210;48.358;10.902;2023-02-22T15:17:51;13.80;;;7.00;;
18170;SDS011;9210;48.358;10.902;2023-02-22T15:20:22;13.93;;;6.50;;